Time;durP1;ratioP1;P1;durP2;ratioP2;P2;SDS_P1;SDS_P2;PMS_P1;PMS_P2;Temp;Humidity;BMP_temperature;BMP_pressure;BME280_temperature;BME280_humidity;BME280_pressure;Samples;Min_cycle;Max_cycle;Signal;HPM_P1;HPM_P2
2023/08/13 00:00:24;;;;;;;4.90;3.80;;;;;;;29.02;37.99;101281.55;103801;1290;62061;-82
2023/08/13 00:02:49;;;;;;;5.80;3.70;;;;;;;29.02;37.85;101281.41;104010;1291;61323;-83
2023/08/13 00:05:15;;;;;;;5.00;4.00;;;;;;;29.03;37.96;101283.70;103899;1286;61414;-83
2023/08/13 00:07:41;;;;;;;4.30;3.60;;;;;;;29.03;37.98;101284.61;103964;1285;61374;-82
2023/08/13 00:10:07;;;;;;;5.50;4.10;;;;;;;29.02;38.04;101283.79;103970;1291;63612;-83
2023/08/13 00:12:32;;;;;;;6.50;3.80;;;;;;;29.02;37.90;101284.30;103864;1285;61459;-82
2023/08/13 00:15:01;;;;;;;4.50;3.40;;;;;;;29.02;37.87;101280.90;103828;1285;61340;-83
2023/08/13 00:17:26;;;;;;;5.00;4.10;;;;;;;29.02;37.96;101280.86;104063;1284;61487;-82
2023/08/13 00:19:52;;;;;;;4.70;3.70;;;;;;;29.02;37.92;101285.42;103919;1291;61354;-83
2023/08/13 00:22:17;;;;;;;4.70;3.70;;;;;;;29.02;38.19;101282.36;103978;1289;61381;-83
2023/08/13 00:24:43;;;;;;;4.80;3.50;;;;;;;29.02;38.09;101287.59;103948;1288;61361;-83
2023/08/13 00:27:08;;;;;;;5.00;3.80;;;;;;;29.01;38.07;101285.67;103959;1285;61428;-83
2023/08/13 00:29:34;;;;;;;4.80;3.70;;;;;;;29.02;38.05;101283.82;103910;1285;61380;-82
2023/08/13 00:31:59;;;;;;;4.70;3.60;;;;;;;29.01;38.00;101285.11;103897;1285;61436;-83
2023/08/13 00:34:25;;;;;;;5.00;3.40;;;;;;;29.01;38.08;101285.48;103913;1288;61309;-83
2023/08/13 00:36:51;;;;;;;5.30;3.90;;;;;;;29.01;38.05;101283.53;103886;1286;61460;-82
2023/08/13 00:39:16;;;;;;;5.10;3.70;;;;;;;29.01;37.76;101284.63;103852;1285;61447;-83
2023/08/13 00:41:42;;;;;;;4.70;3.50;;;;;;;29.01;37.80;101280.45;103848;1287;61373;-83
2023/08/13 00:44:08;;;;;;;4.60;3.60;;;;;;;29.01;38.07;101279.02;103861;1287;61432;-83
2023/08/13 00:46:33;;;;;;;5.10;4.10;;;;;;;29.01;38.03;101277.90;104160;1286;61445;-83
2023/08/13 00:48:59;;;;;;;4.90;3.70;;;;;;;29.01;37.94;101278.84;103959;1287;61376;-83
2023/08/13 00:51:25;;;;;;;4.60;3.80;;;;;;;29.01;37.95;101278.27;103790;1287;61418;-82
2023/08/13 00:53:51;;;;;;;5.20;3.90;;;;;;;29.01;37.88;101278.64;103894;1291;61335;-82
2023/08/13 00:56:17;;;;;;;5.30;4.20;;;;;;;29.01;37.97;101275.92;103900;1294;61471;-82
2023/08/13 00:58:42;;;;;;;5.80;3.90;;;;;;;29.01;38.13;101272.83;103892;1291;61414;-82
2023/08/13 01:01:09;;;;;;;5.10;3.70;;;;;;;29.00;37.98;101276.36;103721;1293;61368;-81
2023/08/13 01:03:36;;;;;;;4.80;3.60;;;;;;;29.01;38.09;101277.41;103905;1288;61274;-82
2023/08/13 01:06:09;;;;;;;4.90;3.70;;;;;;;29.00;37.97;101280.33;104033;1288;61303;-82
2023/08/13 01:08:42;;;;;;;5.70;3.90;;;;;;;29.00;37.82;101284.88;103930;1287;66002;-82
2023/08/13 01:11:13;;;;;;;4.90;3.60;;;;;;;29.00;37.85;101285.77;103933;1285;61394;-83
2023/08/13 01:13:45;;;;;;;5.40;3.50;;;;;;;29.00;38.07;101288.55;103874;1290;61494;-83
2023/08/13 01:16:11;;;;;;;4.90;3.80;;;;;;;29.00;38.05;101288.01;103929;1291;63859;-83
2023/08/13 01:18:39;;;;;;;5.30;3.60;;;;;;;29.00;38.10;101290.15;103756;1294;61774;-83
2023/08/13 01:21:05;;;;;;;4.70;3.70;;;;;;;29.00;38.11;101291.23;103691;1286;61269;-83
2023/08/13 01:23:31;;;;;;;5.80;3.70;;;;;;;29.00;38.04;101289.09;103967;1290;61394;-82
2023/08/13 01:26:04;;;;;;;4.80;3.70;;;;;;;29.00;37.96;101286.00;103823;1290;61410;-82
2023/08/13 01:28:35;;;;;;;4.80;3.50;;;;;;;28.98;38.01;101286.31;103737;1290;65616;-83
2023/08/13 01:31:14;;;;;;;5.30;3.80;;;;;;;28.99;38.06;101286.27;103663;1286;61295;-83
2023/08/13 01:33:41;;;;;;;4.90;3.80;;;;;;;28.98;38.02;101286.33;103894;1292;61397;-82
2023/08/13 01:36:06;;;;;;;5.80;3.90;;;;;;;28.98;37.97;101285.40;103935;1286;63861;-83
2023/08/13 01:38:32;;;;;;;4.60;3.30;;;;;;;28.98;38.16;101288.50;103863;1290;61452;-83
2023/08/13 01:41:02;;;;;;;4.80;3.50;;;;;;;28.98;38.01;101287.41;103944;1289;61846;-82
2023/08/13 01:43:27;;;;;;;5.20;3.60;;;;;;;28.98;38.13;101289.04;103788;1290;61302;-83
2023/08/13 01:45:53;;;;;;;6.00;3.50;;;;;;;28.98;38.17;101288.84;103937;1287;61732;-83
2023/08/13 01:48:18;;;;;;;5.40;3.60;;;;;;;28.98;37.94;101289.61;103870;1286;61810;-83
2023/08/13 01:50:44;;;;;;;5.30;3.70;;;;;;;28.98;37.91;101289.45;103958;1286;61332;-83
2023/08/13 01:53:10;;;;;;;5.20;3.70;;;;;;;28.98;37.92;101287.80;103874;1285;61392;-83
2023/08/13 01:55:35;;;;;;;5.30;3.80;;;;;;;28.98;37.88;101286.73;103965;1289;61461;-82
2023/08/13 01:58:01;;;;;;;5.30;3.50;;;;;;;28.98;38.11;101286.69;103891;1290;61417;-83
2023/08/13 02:00:27;;;;;;;5.40;3.90;;;;;;;28.98;37.93;101291.27;103859;1290;61475;-83
2023/08/13 02:02:53;;;;;;;5.50;3.60;;;;;;;28.97;38.05;101288.41;103606;1287;61314;-82
2023/08/13 02:05:18;;;;;;;4.80;3.50;;;;;;;28.98;37.99;101289.07;103930;1289;61465;-83
2023/08/13 02:07:44;;;;;;;4.90;3.60;;;;;;;28.98;38.11;101289.98;103812;1292;61384;-83
2023/08/13 02:10:09;;;;;;;4.80;3.70;;;;;;;28.98;38.03;101288.05;103882;1291;61409;-82
2023/08/13 02:12:35;;;;;;;5.80;3.80;;;;;;;28.98;37.88;101288.39;103802;1291;61298;-83
2023/08/13 02:15:00;;;;;;;5.00;3.50;;;;;;;28.97;38.10;101289.51;103814;1291;61992;-82
2023/08/13 02:17:26;;;;;;;5.40;3.70;;;;;;;28.97;37.93;101290.97;103887;1285;61383;-83
2023/08/13 02:19:51;;;;;;;4.70;3.60;;;;;;;28.97;38.11;101290.96;103959;1288;61410;-83
2023/08/13 02:22:17;;;;;;;4.80;3.70;;;;;;;28.97;37.93;101293.55;103788;1285;61443;-83
2023/08/13 02:24:42;;;;;;;5.20;3.70;;;;;;;28.97;38.03;101294.95;103984;1288;65723;-83
2023/08/13 02:27:08;;;;;;;5.80;3.80;;;;;;;28.97;37.97;101295.20;103836;1286;61376;-83
2023/08/13 02:29:34;;;;;;;5.10;3.40;;;;;;;28.97;37.86;101298.09;103867;1285;61437;-82
2023/08/13 02:31:59;;;;;;;5.40;3.80;;;;;;;28.96;37.92;101290.91;103804;1285;61402;-82
2023/08/13 02:34:25;;;;;;;5.80;3.70;;;;;;;28.96;37.95;101291.63;103975;1286;61289;-82
2023/08/13 02:36:51;;;;;;;5.40;3.50;;;;;;;28.96;37.91;101293.08;103843;1285;65842;-83
2023/08/13 02:39:16;;;;;;;4.40;3.20;;;;;;;28.96;37.87;101295.63;103991;1288;61361;-82
2023/08/13 02:41:42;;;;;;;5.30;3.70;;;;;;;28.96;38.00;101297.24;103842;1290;61329;-82
2023/08/13 02:44:07;;;;;;;5.10;3.90;;;;;;;28.96;37.86;101294.55;103577;1291;61289;-83
2023/08/13 02:46:33;;;;;;;5.90;3.30;;;;;;;28.96;38.13;101294.35;103911;1286;61359;-83
2023/08/13 02:49:01;;;;;;;4.80;3.50;;;;;;;28.96;37.91;101292.03;103905;1290;61447;-83
2023/08/13 02:51:26;;;;;;;5.20;4.00;;;;;;;28.95;37.96;101294.41;103838;1284;61429;-82
2023/08/13 02:53:52;;;;;;;5.30;3.90;;;;;;;28.95;38.16;101295.70;103609;1289;61591;-82
2023/08/13 02:56:20;;;;;;;4.70;3.60;;;;;;;28.95;38.22;101296.40;103946;1289;61290;-83
2023/08/13 02:58:46;;;;;;;6.30;3.70;;;;;;;28.95;38.21;101303.54;103817;1290;65994;-83
2023/08/13 03:01:11;;;;;;;4.80;3.40;;;;;;;28.95;38.25;101300.83;103882;1285;61478;-83
2023/08/13 03:03:37;;;;;;;5.60;3.90;;;;;;;28.95;37.92;101301.19;103590;1286;61296;-82
2023/08/13 03:06:03;;;;;;;4.80;3.90;;;;;;;28.94;38.23;101297.08;103778;1289;62961;-82
2023/08/13 03:08:29;;;;;;;5.40;3.80;;;;;;;28.93;38.19;101298.36;103873;1290;61298;-83
2023/08/13 03:10:54;;;;;;;5.40;3.90;;;;;;;28.94;38.09;101298.84;103669;1285;62425;-83
2023/08/13 03:13:20;;;;;;;5.00;3.80;;;;;;;28.94;37.96;101300.70;104019;1285;61263;-82
2023/08/13 03:15:46;;;;;;;5.10;3.90;;;;;;;28.94;37.99;101302.88;103864;1285;61398;-83
2023/08/13 03:18:11;;;;;;;5.40;3.50;;;;;;;28.94;38.02;101305.05;103844;1290;61786;-83
2023/08/13 03:20:37;;;;;;;5.20;3.70;;;;;;;28.93;38.16;101303.27;103857;1285;61396;-83
2023/08/13 03:23:03;;;;;;;5.20;3.50;;;;;;;28.93;38.26;101301.11;103872;1290;61406;-82
2023/08/13 03:25:29;;;;;;;5.10;3.90;;;;;;;28.93;38.10;101304.20;103912;1287;61386;-83
2023/08/13 03:27:54;;;;;;;5.60;3.80;;;;;;;28.94;38.13;101303.05;103889;1286;61389;-82
2023/08/13 03:30:20;;;;;;;5.60;3.60;;;;;;;28.94;38.19;101304.71;103928;1287;61759;-82
2023/08/13 03:32:46;;;;;;;5.70;3.70;;;;;;;28.94;38.24;101305.05;103593;1287;61414;-82
2023/08/13 03:35:11;;;;;;;5.50;3.70;;;;;;;28.94;38.26;101307.23;103874;1290;61401;-82
2023/08/13 03:37:37;;;;;;;5.70;3.60;;;;;;;28.94;38.00;101312.48;103878;1290;61347;-83
2023/08/13 03:40:03;;;;;;;5.20;3.90;;;;;;;28.93;38.15;101311.95;103821;1287;61398;-83
2023/08/13 03:42:28;;;;;;;4.60;3.70;;;;;;;28.93;38.32;101311.45;103945;1284;62021;-82
2023/08/13 03:44:55;;;;;;;5.50;3.60;;;;;;;28.93;38.35;101309.63;103998;1285;61467;-83
2023/08/13 03:47:20;;;;;;;4.80;3.70;;;;;;;28.94;38.37;101310.31;103640;1286;61349;-83
2023/08/13 03:49:46;;;;;;;4.40;3.60;;;;;;;28.94;38.19;101308.85;103969;1285;61390;-83
2023/08/13 03:52:11;;;;;;;4.80;3.70;;;;;;;28.94;38.14;101309.73;103945;1285;61419;-83
2023/08/13 03:54:37;;;;;;;6.30;4.00;;;;;;;28.95;38.01;101311.30;103964;1286;62142;-83
2023/08/13 03:57:02;;;;;;;5.00;3.90;;;;;;;28.94;38.20;101308.09;103566;1293;61482;-83
2023/08/13 03:59:28;;;;;;;5.40;3.70;;;;;;;28.95;37.98;101306.23;103866;1285;61652;-83
2023/08/13 04:01:53;;;;;;;5.90;3.80;;;;;;;28.95;38.17;101305.85;103856;1286;61379;-83
2023/08/13 04:04:19;;;;;;;6.20;3.80;;;;;;;28.95;38.14;101304.45;103906;1290;61405;-83
2023/08/13 04:06:46;;;;;;;4.80;3.90;;;;;;;28.95;38.16;101307.27;103853;1290;61327;-83
2023/08/13 04:09:12;;;;;;;4.60;3.40;;;;;;;28.94;38.13;101310.59;103912;1287;65837;-83
2023/08/13 04:11:39;;;;;;;5.30;3.80;;;;;;;28.95;38.13;101308.60;103926;1285;61425;-83
2023/08/13 04:14:05;;;;;;;4.70;3.70;;;;;;;28.95;38.20;101312.00;103958;1284;61271;-83
2023/08/13 04:16:31;;;;;;;5.60;3.50;;;;;;;28.95;38.05;101310.89;103838;1290;61868;-82
2023/08/13 04:18:56;;;;;;;5.10;3.50;;;;;;;28.95;38.08;101314.89;103879;1290;61471;-83
2023/08/13 04:21:27;;;;;;;5.20;3.80;;;;;;;28.95;38.10;101315.65;103829;1285;61419;-83
2023/08/13 04:23:56;;;;;;;5.00;3.90;;;;;;;28.95;38.05;101317.09;103944;1284;61932;-83
2023/08/13 04:26:22;;;;;;;5.50;3.90;;;;;;;28.96;38.06;101317.60;103829;1285;63697;-83
2023/08/13 04:28:47;;;;;;;5.10;3.70;;;;;;;28.95;38.21;101317.80;103949;1287;61832;-83
2023/08/13 04:31:13;;;;;;;5.00;3.80;;;;;;;28.96;38.03;101326.23;103854;1284;61612;-83
2023/08/13 04:33:38;;;;;;;5.60;3.80;;;;;;;28.96;38.16;101323.21;104006;1284;61379;-83
2023/08/13 04:36:04;;;;;;;4.70;3.90;;;;;;;28.96;38.17;101322.27;103897;1285;61421;-83
2023/08/13 04:38:29;;;;;;;5.50;3.60;;;;;;;28.96;38.07;101327.52;103741;1291;61442;-83
2023/08/13 04:40:55;;;;;;;4.70;3.60;;;;;;;28.96;38.18;101326.98;103814;1285;61393;-83
2023/08/13 04:43:20;;;;;;;4.60;3.70;;;;;;;28.96;38.16;101331.66;104058;1288;61423;-83
2023/08/13 04:45:46;;;;;;;4.70;3.50;;;;;;;28.96;38.11;101335.10;103942;1284;61356;-83
2023/08/13 04:48:16;;;;;;;6.90;3.60;;;;;;;28.96;38.10;101332.73;103892;1291;61386;-83
2023/08/13 04:50:42;;;;;;;4.90;3.60;;;;;;;28.96;38.04;101337.09;103962;1289;65571;-83
2023/08/13 04:53:08;;;;;;;5.30;4.00;;;;;;;28.96;38.20;101337.24;103941;1286;61364;-83
2023/08/13 04:55:33;;;;;;;5.30;3.90;;;;;;;28.96;38.09;101337.98;103890;1285;61390;-83
2023/08/13 04:57:59;;;;;;;5.40;4.00;;;;;;;28.96;38.01;101338.51;103888;1285;61905;-83
2023/08/13 05:00:24;;;;;;;5.50;4.20;;;;;;;28.97;38.17;101337.52;104011;1287;61402;-82
2023/08/13 05:02:50;;;;;;;5.60;4.10;;;;;;;28.98;37.99;101344.91;103786;1287;65792;-83
2023/08/13 05:05:15;;;;;;;5.00;3.70;;;;;;;28.98;38.20;101344.54;103851;1290;61379;-83
2023/08/13 05:07:41;;;;;;;5.10;3.70;;;;;;;28.97;38.06;101344.20;103884;1286;61446;-83
2023/08/13 05:10:07;;;;;;;6.40;4.00;;;;;;;28.98;38.37;101346.83;103718;1292;61408;-83
2023/08/13 05:12:32;;;;;;;6.50;4.10;;;;;;;28.98;38.06;101343.80;103859;1286;61883;-83
2023/08/13 05:14:58;;;;;;;5.00;3.60;;;;;;;28.99;37.95;101348.36;103877;1286;61355;-83
2023/08/13 05:17:24;;;;;;;5.10;3.90;;;;;;;29.00;38.22;101347.42;103830;1290;61468;-83
2023/08/13 05:19:50;;;;;;;5.00;4.00;;;;;;;29.00;38.18;101347.94;103851;1288;61359;-83
2023/08/13 05:22:16;;;;;;;4.70;3.50;;;;;;;29.01;38.30;101353.60;103871;1286;61372;-83
2023/08/13 05:24:42;;;;;;;4.90;3.60;;;;;;;29.01;38.56;101350.40;103531;1286;61476;-83
2023/08/13 05:27:07;;;;;;;4.70;3.70;;;;;;;29.02;38.65;101351.55;103758;1288;61432;-83
2023/08/13 05:29:33;;;;;;;5.30;3.50;;;;;;;29.03;38.55;101356.04;103902;1289;61352;-82
2023/08/13 05:31:58;;;;;;;4.70;3.40;;;;;;;29.03;38.63;101354.34;103840;1286;61326;-83
2023/08/13 05:34:24;;;;;;;4.70;3.30;;;;;;;29.04;38.73;101354.64;103758;1288;61386;-82
2023/08/13 05:36:49;;;;;;;5.60;4.10;;;;;;;29.04;38.85;101355.48;103877;1291;61743;-83
2023/08/13 05:39:15;;;;;;;4.50;3.40;;;;;;;29.05;38.77;101356.46;103788;1286;61459;-83
2023/08/13 05:41:40;;;;;;;4.90;3.70;;;;;;;29.06;38.85;101357.27;103929;1286;61390;-82
2023/08/13 05:44:06;;;;;;;5.10;3.80;;;;;;;29.07;38.92;101356.48;103831;1286;61346;-83
2023/08/13 05:46:32;;;;;;;5.30;3.70;;;;;;;29.07;39.00;101357.35;103737;1287;61370;-82
2023/08/13 05:48:58;;;;;;;4.60;3.50;;;;;;;29.08;39.07;101353.83;103628;1288;61365;-83
2023/08/13 05:51:24;;;;;;;4.80;3.50;;;;;;;29.09;39.13;101357.73;103893;1286;61397;-83
2023/08/13 05:53:49;;;;;;;4.60;3.60;;;;;;;29.10;39.01;101360.19;103954;1289;61407;-83
2023/08/13 05:56:15;;;;;;;4.90;3.70;;;;;;;29.10;39.03;101357.45;103854;1286;61436;-83
2023/08/13 05:58:40;;;;;;;5.10;3.80;;;;;;;29.12;38.93;101356.63;103795;1286;63735;-83
2023/08/13 06:01:06;;;;;;;5.10;3.70;;;;;;;29.12;39.18;101361.27;103768;1292;61405;-83
2023/08/13 06:03:32;;;;;;;5.10;3.90;;;;;;;29.13;39.09;101365.73;103935;1287;61379;-82
2023/08/13 06:05:58;;;;;;;4.90;3.80;;;;;;;29.13;39.10;101360.81;103809;1292;61339;-83
2023/08/13 06:08:24;;;;;;;4.80;3.60;;;;;;;29.14;39.27;101363.82;103834;1286;62409;-83
2023/08/13 06:10:50;;;;;;;4.50;3.70;;;;;;;29.15;39.00;101370.05;103878;1287;61376;-82
2023/08/13 06:13:15;;;;;;;5.00;3.40;;;;;;;29.15;39.14;101370.75;103837;1287;61488;-83
2023/08/13 06:15:41;;;;;;;4.60;3.60;;;;;;;29.16;39.20;101373.40;103806;1286;61306;-82
2023/08/13 06:18:07;;;;;;;5.20;3.90;;;;;;;29.17;39.12;101374.98;103963;1289;61374;-83
2023/08/13 06:20:32;;;;;;;4.90;3.70;;;;;;;29.18;39.11;101376.13;103794;1285;61325;-83
2023/08/13 06:22:58;;;;;;;4.80;3.60;;;;;;;29.17;39.20;101378.67;103913;1285;61377;-83
2023/08/13 06:25:23;;;;;;;4.60;3.50;;;;;;;29.18;39.13;101374.33;103848;1284;62502;-82
2023/08/13 06:27:49;;;;;;;4.70;3.70;;;;;;;29.18;39.01;101378.97;103972;1284;61381;-83
2023/08/13 06:30:14;;;;;;;5.20;3.90;;;;;;;29.19;39.24;101380.70;103976;1285;61450;-83
2023/08/13 06:32:40;;;;;;;4.30;3.30;;;;;;;29.20;39.19;101380.98;103948;1289;61308;-83
2023/08/13 06:35:06;;;;;;;5.20;3.50;;;;;;;29.20;39.34;101375.89;103813;1287;61843;-82
2023/08/13 06:37:32;;;;;;;4.50;3.70;;;;;;;29.20;39.02;101378.61;104001;1286;62522;-82
2023/08/13 06:39:57;;;;;;;4.80;3.70;;;;;;;29.21;39.11;101377.44;103738;1285;318180;-82
2023/08/13 06:42:23;;;;;;;5.20;3.30;;;;;;;29.21;39.12;101378.13;103811;1286;62379;-83
2023/08/13 06:44:49;;;;;;;4.60;3.80;;;;;;;29.22;39.12;101380.23;104127;1284;61420;-83
2023/08/13 06:47:14;;;;;;;5.50;3.80;;;;;;;29.23;39.25;101379.80;103835;1284;61484;-83
2023/08/13 06:49:40;;;;;;;5.70;3.50;;;;;;;29.23;39.10;101374.85;103790;1290;61301;-82
2023/08/13 06:52:06;;;;;;;4.40;3.50;;;;;;;29.23;39.14;101371.24;103865;1284;62500;-83
2023/08/13 06:54:32;;;;;;;5.10;4.00;;;;;;;29.23;39.15;101372.30;103975;1285;61283;-83
2023/08/13 06:56:58;;;;;;;5.20;3.90;;;;;;;29.24;39.03;101376.42;103933;1285;61292;-82
2023/08/13 06:59:24;;;;;;;4.70;3.40;;;;;;;29.25;39.15;101375.82;103871;1284;61411;-83
2023/08/13 07:01:50;;;;;;;4.80;3.90;;;;;;;29.25;39.16;101375.80;103944;1285;61413;-83
2023/08/13 07:04:16;;;;;;;4.40;3.40;;;;;;;29.25;39.21;101375.23;103868;1285;61383;-83
2023/08/13 07:06:41;;;;;;;4.70;3.70;;;;;;;29.26;39.34;101374.60;103859;1285;61465;-83
2023/08/13 07:09:07;;;;;;;4.50;3.40;;;;;;;29.26;39.26;101373.52;103905;1284;61388;-83
2023/08/13 07:11:32;;;;;;;4.80;3.60;;;;;;;29.27;39.05;101373.77;103950;1284;61446;-82
2023/08/13 07:13:58;;;;;;;4.40;3.40;;;;;;;29.27;39.23;101369.45;103928;1285;61310;-83
2023/08/13 07:16:24;;;;;;;4.70;3.50;;;;;;;29.27;39.26;101371.26;103988;1284;61484;-82
2023/08/13 07:18:49;;;;;;;5.00;3.40;;;;;;;29.28;39.34;101373.02;103936;1287;61970;-83
2023/08/13 07:21:15;;;;;;;4.80;3.70;;;;;;;29.28;39.08;101370.80;103923;1290;61408;-83
2023/08/13 07:23:40;;;;;;;4.70;3.30;;;;;;;29.28;39.11;101375.14;103877;1286;65821;-83
2023/08/13 07:26:06;;;;;;;4.60;3.60;;;;;;;29.28;39.19;101371.50;103781;1287;61523;-83
2023/08/13 07:28:34;;;;;;;5.10;3.90;;;;;;;29.29;39.26;101374.73;103786;1288;61414;-83
2023/08/13 07:31:03;;;;;;;6.60;3.80;;;;;;;29.29;39.24;101371.65;103864;1286;61309;-83
2023/08/13 07:33:32;;;;;;;5.10;3.90;;;;;;;29.29;39.22;101375.29;103849;1286;66002;-83
2023/08/13 07:36:02;;;;;;;5.00;3.40;;;;;;;29.29;39.16;101374.88;103607;1288;61302;-83
2023/08/13 07:38:27;;;;;;;4.20;3.40;;;;;;;29.29;39.10;101371.24;103932;1287;61322;-83
2023/08/13 07:40:55;;;;;;;4.90;3.60;;;;;;;29.30;39.06;101370.84;103884;1290;61347;-83
2023/08/13 07:43:21;;;;;;;4.60;3.50;;;;;;;29.29;39.24;101371.42;103804;1286;65847;-83
2023/08/13 07:45:46;;;;;;;4.40;3.70;;;;;;;29.30;38.98;101365.00;103793;1287;61414;-83
2023/08/13 07:48:12;;;;;;;4.70;3.60;;;;;;;29.30;39.12;101367.71;103951;1286;61393;-83
2023/08/13 07:50:37;;;;;;;4.50;3.60;;;;;;;29.30;39.03;101364.97;103977;1286;61469;-83
2023/08/13 07:53:04;;;;;;;4.60;3.60;;;;;;;29.31;39.15;101365.14;103941;1289;61309;-83
2023/08/13 07:55:30;;;;;;;5.10;3.60;;;;;;;29.30;39.16;101360.63;103846;1286;65579;-83
2023/08/13 07:57:55;;;;;;;4.80;3.80;;;;;;;29.31;39.19;101366.17;103842;1286;61337;-82
2023/08/13 08:00:21;;;;;;;4.50;3.30;;;;;;;29.31;39.12;101361.82;103860;1286;61396;-83
2023/08/13 08:02:46;;;;;;;5.70;3.40;;;;;;;29.31;39.00;101356.92;103864;1287;61474;-83
2023/08/13 08:05:13;;;;;;;4.70;3.70;;;;;;;29.31;38.94;101355.86;103963;1288;61398;-83
2023/08/13 08:07:39;;;;;;;4.20;3.30;;;;;;;29.31;39.11;101353.30;103855;1289;61405;-83
2023/08/13 08:10:05;;;;;;;4.10;3.40;;;;;;;29.31;39.16;101349.48;103883;1286;61370;-83
2023/08/13 08:12:31;;;;;;;5.40;3.40;;;;;;;29.31;39.15;101350.23;104018;1286;61511;-83
2023/08/13 08:14:56;;;;;;;5.30;3.50;;;;;;;29.31;39.22;101351.09;103746;1287;61436;-83
2023/08/13 08:17:22;;;;;;;4.70;3.60;;;;;;;29.31;39.26;101351.82;103789;1287;61392;-83
2023/08/13 08:19:48;;;;;;;4.90;3.60;;;;;;;29.32;39.05;101351.25;103915;1287;61370;-83
2023/08/13 08:22:17;;;;;;;5.00;3.30;;;;;;;29.31;39.19;101345.16;103963;1285;61407;-83
2023/08/13 08:24:42;;;;;;;4.50;3.40;;;;;;;29.31;39.18;101347.34;103852;1286;62441;-83
2023/08/13 08:27:10;;;;;;;4.60;3.60;;;;;;;29.31;39.07;101347.64;103966;1288;61375;-82
2023/08/13 08:29:36;;;;;;;4.30;3.40;;;;;;;29.31;39.10;101341.86;103950;1286;61394;-83
2023/08/13 08:32:01;;;;;;;4.50;3.40;;;;;;;29.32;39.04;101344.38;103923;1286;61430;-83
2023/08/13 08:34:28;;;;;;;4.10;3.40;;;;;;;29.32;39.02;101343.45;103496;1286;61386;-83
2023/08/13 08:36:53;;;;;;;5.10;3.60;;;;;;;29.32;39.07;101339.84;103819;1289;61419;-83
2023/08/13 08:39:19;;;;;;;4.20;3.30;;;;;;;29.32;38.95;101340.52;103873;1286;61783;-83
2023/08/13 08:41:48;;;;;;;4.70;3.60;;;;;;;29.32;39.08;101337.08;103847;1287;61437;-82
2023/08/13 08:44:22;;;;;;;4.80;3.90;;;;;;;29.31;38.83;101334.05;103492;1286;61383;-82
2023/08/13 08:46:49;;;;;;;4.70;3.40;;;;;;;29.31;38.91;101337.66;103918;1285;63651;-83
2023/08/13 08:49:16;;;;;;;5.00;3.80;;;;;;;29.32;38.70;101334.39;104092;1288;61386;-83
2023/08/13 08:51:41;;;;;;;4.50;3.40;;;;;;;29.32;38.50;101335.11;103935;1286;61186;-83
2023/08/13 08:54:08;;;;;;;5.30;3.70;;;;;;;29.32;38.56;101331.81;103718;1288;61489;-83
2023/08/13 08:56:33;;;;;;;4.50;3.50;;;;;;;29.33;38.63;101331.93;103868;1287;61537;-83
2023/08/13 08:58:59;;;;;;;5.20;3.70;;;;;;;29.32;38.40;101327.57;103893;1286;61330;-82
2023/08/13 09:01:25;;;;;;;4.60;3.80;;;;;;;29.33;38.26;101330.98;103937;1286;61397;-82
2023/08/13 09:03:50;;;;;;;5.70;3.60;;;;;;;29.32;38.41;101326.01;103893;1287;61401;-82
2023/08/13 09:06:16;;;;;;;4.40;3.20;;;;;;;29.33;38.28;101322.83;103404;1286;61381;-82
2023/08/13 09:08:41;;;;;;;4.10;3.20;;;;;;;29.33;38.27;101327.15;103777;1287;62489;-82
2023/08/13 09:11:07;;;;;;;4.60;3.60;;;;;;;29.33;38.29;101327.14;104027;1288;61498;-82
2023/08/13 09:13:33;;;;;;;4.80;3.20;;;;;;;29.33;38.26;101324.63;103605;1286;61377;-82
2023/08/13 09:15:59;;;;;;;4.30;3.30;;;;;;;29.33;38.18;101325.55;103830;1287;61375;-82
2023/08/13 09:18:24;;;;;;;4.30;3.30;;;;;;;29.33;38.36;101322.59;103890;1290;61452;-82
2023/08/13 09:20:50;;;;;;;5.00;3.60;;;;;;;29.33;38.21;101315.04;103888;1286;64116;-82
2023/08/13 09:23:25;;;;;;;4.70;3.50;;;;;;;29.33;38.26;101312.14;103910;1286;61352;-82
2023/08/13 09:25:53;;;;;;;5.10;3.60;;;;;;;29.34;38.32;101307.91;103964;1286;61299;-82
2023/08/13 09:28:18;;;;;;;4.90;3.50;;;;;;;29.33;38.01;101309.38;103925;1286;61286;-82
2023/08/13 09:30:44;;;;;;;5.30;3.80;;;;;;;29.34;38.08;101307.91;103862;1286;61393;-82
2023/08/13 09:33:09;;;;;;;4.40;3.30;;;;;;;29.33;37.96;101305.59;103745;1286;61459;-82
2023/08/13 09:35:35;;;;;;;5.60;3.70;;;;;;;29.33;38.19;101304.64;103821;1285;61411;-82
2023/08/13 09:38:01;;;;;;;6.30;4.30;;;;;;;29.34;38.02;101307.85;103628;1287;61318;-82
2023/08/13 09:40:27;;;;;;;4.40;3.30;;;;;;;29.34;38.08;101303.73;103869;1286;61413;-82
2023/08/13 09:42:53;;;;;;;5.00;3.60;;;;;;;29.34;37.97;101296.66;103853;1286;63915;-82
2023/08/13 09:45:20;;;;;;;4.90;3.30;;;;;;;29.34;38.13;101295.04;103776;1288;65799;-82
2023/08/13 09:47:46;;;;;;;4.90;3.90;;;;;;;29.34;38.18;101290.65;103757;1287;61364;-82
2023/08/13 09:50:15;;;;;;;4.50;3.60;;;;;;;29.34;37.98;101291.74;103906;1288;61398;-82
2023/08/13 09:52:43;;;;;;;4.80;3.50;;;;;;;29.33;38.09;101297.61;103902;1286;63941;-82
2023/08/13 09:55:13;;;;;;;4.80;3.60;;;;;;;29.34;37.95;101295.58;103907;1286;65818;-83
2023/08/13 09:57:40;;;;;;;4.70;3.60;;;;;;;29.34;37.89;101298.30;103824;1286;62413;-82
2023/08/13 10:00:07;;;;;;;4.90;3.40;;;;;;;29.34;38.01;101293.37;103917;1287;61296;-82
2023/08/13 10:02:33;;;;;;;4.10;3.30;;;;;;;29.34;38.14;101289.92;103825;1290;63875;-82
2023/08/13 10:04:58;;;;;;;5.10;3.70;;;;;;;29.34;38.02;101283.75;103786;1286;61409;-82
2023/08/13 10:07:24;;;;;;;5.60;3.50;;;;;;;29.34;38.04;101284.47;103961;1286;61427;-82
2023/08/13 10:09:50;;;;;;;4.40;3.50;;;;;;;29.34;37.92;101286.10;103780;1285;61293;-83
2023/08/13 10:12:15;;;;;;;5.00;3.60;;;;;;;29.35;37.88;101279.37;103707;1288;61328;-82
2023/08/13 10:14:41;;;;;;;4.80;3.60;;;;;;;29.34;37.96;101277.73;103964;1285;61389;-83
2023/08/13 10:17:06;;;;;;;4.60;3.40;;;;;;;29.35;37.92;101277.34;103843;1288;61445;-83
2023/08/13 10:19:38;;;;;;;4.10;3.30;;;;;;;29.35;37.85;101276.08;103872;1288;61392;-82
2023/08/13 10:22:04;;;;;;;4.20;3.30;;;;;;;29.34;37.82;101272.68;104013;1286;61405;-82
2023/08/13 10:24:30;;;;;;;4.60;3.50;;;;;;;29.35;37.72;101274.45;103818;1287;61384;-82
2023/08/13 10:26:59;;;;;;;4.40;3.40;;;;;;;29.35;37.76;101275.52;103731;1286;61390;-82
2023/08/13 10:29:25;;;;;;;5.40;3.40;;;;;;;29.35;37.85;101271.71;103957;1288;61373;-82
2023/08/13 10:31:54;;;;;;;5.80;3.60;;;;;;;29.35;37.79;101268.29;103563;1288;61357;-81
2023/08/13 10:34:50;;;;;;;4.50;3.60;;;;;;;29.34;37.84;101271.38;103919;1286;63990;-82
2023/08/13 10:37:23;;;;;;;4.60;3.50;;;;;;;29.34;37.96;101273.07;103773;1288;65667;-82
2023/08/13 10:39:54;;;;;;;4.90;3.70;;;;;;;29.34;37.77;101272.19;103917;1289;61392;-82
2023/08/13 10:42:48;;;;;;;4.20;3.40;;;;;;;29.34;37.87;101271.85;103871;1287;61386;-82
2023/08/13 10:45:15;;;;;;;5.20;3.50;;;;;;;29.33;37.88;101266.96;103467;1291;63967;-82
2023/08/13 10:47:48;;;;;;;4.40;3.30;;;;;;;29.33;37.81;101260.79;103376;1291;65849;-82
2023/08/13 10:50:16;;;;;;;4.10;3.20;;;;;;;29.33;37.64;101262.98;103416;1292;61479;-82
2023/08/13 10:52:42;;;;;;;4.10;3.20;;;;;;;29.34;37.93;101260.27;103331;1291;61366;-83
2023/08/13 10:55:11;;;;;;;4.50;3.30;;;;;;;29.34;37.84;101254.06;103363;1296;61312;-82
2023/08/13 10:57:39;;;;;;;4.70;3.50;;;;;;;29.34;38.01;101259.34;103437;1291;64949;-81
2023/08/13 11:00:05;;;;;;;4.00;3.20;;;;;;;29.33;37.82;101253.73;103560;1291;61454;-82
2023/08/13 11:02:31;;;;;;;5.10;3.70;;;;;;;29.34;37.78;101254.20;103468;1291;61392;-82
2023/08/13 11:04:56;;;;;;;4.20;3.40;;;;;;;29.34;37.93;101253.66;103459;1291;62331;-82
2023/08/13 11:07:22;;;;;;;4.50;3.30;;;;;;;29.34;37.92;101248.06;103537;1291;61535;-83
2023/08/13 11:09:48;;;;;;;4.70;3.40;;;;;;;29.34;37.80;101240.45;103374;1291;61395;-82
2023/08/13 11:12:13;;;;;;;4.70;3.40;;;;;;;29.34;37.63;101238.98;103425;1295;62378;-83